Time;durP1;ratioP1;P1;durP2;ratioP2;P2;SDS_P1;SDS_P2;PMS_P1;PMS_P2;Temp;Humidity;BMP_temperature;BMP_pressure;BME280_temperature;BME280_humidity;BME280_pressure;Samples;Min_cycle;Max_cycle;Signal;HPM_P1;HPM_P2
2021/09/15 00:00:25;;;;;;;;;;;;;;;16.36;100.00;93048.94;2122480;27;19964;-81
2021/09/15 00:01:26;;;;;;;;;;;;;;;16.40;100.00;93039.94;2125213;27;19983;-81
2021/09/15 00:02:27;;;;;;;;;;;;;;;16.39;100.00;93046.53;2115872;28;19929;-83
2021/09/15 00:03:28;;;;;;;;;;;;;;;16.60;100.00;93045.56;2107495;28;20272;-82
2021/09/15 00:04:30;;;;;;;;;;;;;;;16.59;100.00;93047.53;2116138;28;20356;-80
2021/09/15 00:05:31;;;;;;;;;;;;;;;16.58;100.00;93040.59;2115955;28;19960;-83
2021/09/15 00:06:32;;;;;;;;;;;;;;;16.49;100.00;93040.66;2116144;28;19990;-79
2021/09/15 00:07:33;;;;;;;;;;;;;;;16.50;100.00;93044.84;2115542;28;19961;-79
2021/09/15 00:08:34;;;;;;;;;;;;;;;16.55;100.00;93044.25;2115855;28;19918;-80
2021/09/15 00:09:35;;;;;;;;;;;;;;;16.41;100.00;93044.13;2107250;28;19916;-81
2021/09/15 00:10:36;;;;;;;;;;;;;;;16.34;100.00;93037.84;2107600;28;19954;-82
2021/09/15 00:11:37;;;;;;;;;;;;;;;16.34;100.00;93047.91;2116394;28;19966;-79
2021/09/15 00:12:38;;;;;;;;;;;;;;;16.32;100.00;93039.50;2115899;28;19912;-83
2021/09/15 00:13:40;;;;;;;;;;;;;;;16.35;100.00;93033.94;2107379;28;20365;-83
2021/09/15 00:14:42;;;;;;;;;;;;;;;16.42;100.00;93035.59;2123914;27;19918;-81
2021/09/15 00:15:42;;;;;;;;;;;;;;;16.33;100.00;93036.38;2116564;28;20700;-81
2021/09/15 00:16:43;;;;;;;;;;;;;;;16.36;100.00;93034.69;2116213;28;19908;-80
2021/09/15 00:17:44;;;;;;;;;;;;;;;16.34;100.00;93037.09;2115523;28;19955;-83
2021/09/15 00:18:45;;;;;;;;;;;;;;;16.22;100.00;93038.78;2116401;27;20052;-80
2021/09/15 00:19:46;;;;;;;;;;;;;;;16.11;100.00;93028.47;2124349;27;19916;-83
2021/09/15 00:20:47;;;;;;;;;;;;;;;16.17;100.00;93027.88;2115947;28;20460;-84
2021/09/15 00:21:48;;;;;;;;;;;;;;;16.14;100.00;93021.41;2124424;27;19938;-80
2021/09/15 00:22:49;;;;;;;;;;;;;;;16.12;100.00;93023.81;2124112;27;19911;-80
2021/09/15 00:23:51;;;;;;;;;;;;;;;16.08;100.00;93020.53;2124460;27;20410;-81
2021/09/15 00:24:52;;;;;;;;;;;;;;;16.01;100.00;93013.50;2124774;27;19917;-80
2021/09/15 00:25:54;;;;;;;;;;;;;;;16.07;100.00;93017.09;2124917;27;20006;-81
2021/09/15 00:26:55;;;;;;;;;;;;;;;15.99;100.00;93017.88;2124460;27;19908;-78
2021/09/15 00:27:55;;;;;;;;;;;;;;;15.94;100.00;93013.09;2123800;27;19911;-81
2021/09/15 00:28:57;;;;;;;;;;;;;;;15.90;100.00;93015.19;2119091;27;20002;-81
2021/09/15 00:29:58;;;;;;;;;;;;;;;15.91;100.00;93011.28;2113399;28;19907;-82
2021/09/15 00:30:58;;;;;;;;;;;;;;;16.00;100.00;93014.72;2122284;27;19918;-79
2021/09/15 00:31:59;;;;;;;;;;;;;;;15.97;100.00;93020.25;2113281;28;20364;-81
2021/09/15 00:33:01;;;;;;;;;;;;;;;15.89;100.00;93011.72;2101411;28;19999;-85
2021/09/15 00:34:03;;;;;;;;;;;;;;;15.89;100.00;93019.06;2121493;27;19919;-80
2021/09/15 00:35:06;;;;;;;;;;;;;;;15.83;100.00;93011.59;2118851;27;20025;-78
2021/09/15 00:36:08;;;;;;;;;;;;;;;15.88;100.00;93012.94;2121994;27;19975;-77
2021/09/15 00:37:09;;;;;;;;;;;;;;;15.87;100.00;93006.03;2121885;27;19912;-79
2021/09/15 00:38:10;;;;;;;;;;;;;;;15.87;100.00;93014.13;2115592;28;19912;-81
2021/09/15 00:39:11;;;;;;;;;;;;;;;15.89;100.00;93010.97;2119861;27;19911;-83
2021/09/15 00:40:12;;;;;;;;;;;;;;;15.86;100.00;93004.56;2120451;27;19915;-83
2021/09/15 00:41:13;;;;;;;;;;;;;;;15.91;100.00;93005.91;2120629;27;20713;-82
2021/09/15 00:42:14;;;;;;;;;;;;;;;15.87;100.00;93008.75;2120099;27;19923;-82
2021/09/15 00:43:15;;;;;;;;;;;;;;;15.86;100.00;93009.94;2120863;27;19911;-83
2021/09/15 00:44:16;;;;;;;;;;;;;;;15.91;100.00;93001.25;2119360;27;19982;-82
2021/09/15 00:45:19;;;;;;;;;;;;;;;15.95;100.00;93009.94;2112106;28;19990;-80
2021/09/15 00:46:20;;;;;;;;;;;;;;;16.09;100.00;93008.53;2118713;27;19911;-83
2021/09/15 00:47:21;;;;;;;;;;;;;;;15.99;100.00;93009.78;2120360;27;19911;-81
2021/09/15 00:48:24;;;;;;;;;;;;;;;15.90;100.00;93005.16;2118903;27;19926;-81
2021/09/15 00:49:25;;;;;;;;;;;;;;;15.87;100.00;93006.03;2121603;27;19960;-79
2021/09/15 00:50:28;;;;;;;;;;;;;;;15.84;100.00;92996.16;2123843;27;20409;-79
2021/09/15 00:51:34;;;;;;;;;;;;;;;15.79;100.00;92997.50;2117787;27;20349;-82
2021/09/15 00:52:35;;;;;;;;;;;;;;;15.81;100.00;92995.13;2116073;28;19912;-80
2021/09/15 00:53:36;;;;;;;;;;;;;;;15.77;100.00;93002.63;2107873;28;19912;-81
2021/09/15 00:54:38;;;;;;;;;;;;;;;15.82;100.00;92999.31;2105524;28;19919;-81
2021/09/15 00:55:40;;;;;;;;;;;;;;;15.85;100.00;93000.38;2099688;28;20369;-78
2021/09/15 00:56:41;;;;;;;;;;;;;;;15.85;100.00;93008.47;2107521;28;20044;-81
2021/09/15 00:57:42;;;;;;;;;;;;;;;15.90;100.00;92996.31;2111348;28;19922;-82
2021/09/15 00:58:43;;;;;;;;;;;;;;;15.86;100.00;93004.56;2098752;28;20674;-82
2021/09/15 00:59:44;;;;;;;;;;;;;;;15.87;100.00;93003.34;2111209;28;19957;-82
2021/09/15 01:00:45;;;;;;;;;;;;;;;15.93;100.00;92998.09;2124023;27;19990;-79
2021/09/15 01:01:47;;;;;;;;;;;;;;;15.82;100.00;92993.94;2116929;27;19907;-81
2021/09/15 01:02:48;;;;;;;;;;;;;;;15.85;100.00;92998.41;2123728;27;19934;-81
2021/09/15 01:03:50;;;;;;;;;;;;;;;15.91;100.00;93001.25;2123995;27;20344;-81
2021/09/15 01:04:52;;;;;;;;;;;;;;;15.83;100.00;92998.09;2124515;27;19907;-81
2021/09/15 01:05:52;;;;;;;;;;;;;;;15.77;100.00;92996.47;2123821;27;20017;-79
2021/09/15 01:06:54;;;;;;;;;;;;;;;15.72;100.00;92997.09;2123818;27;19968;-81
2021/09/15 01:07:56;;;;;;;;;;;;;;;15.72;100.00;92997.84;2121808;27;20413;-83
2021/09/15 01:08:58;;;;;;;;;;;;;;;15.70;100.00;92996.78;2107026;28;20006;-80
2021/09/15 01:09:59;;;;;;;;;;;;;;;15.71;100.00;92984.78;2098973;28;19998;-82
2021/09/15 01:11:02;;;;;;;;;;;;;;;15.72;100.00;92987.06;2098692;28;19909;-83
2021/09/15 01:12:04;;;;;;;;;;;;;;;15.67;100.00;92987.66;2099181;28;19959;-81
2021/09/15 01:13:05;;;;;;;;;;;;;;;15.62;100.00;92990.91;2118354;27;19996;-80
2021/09/15 01:14:06;;;;;;;;;;;;;;;15.58;100.00;92985.69;2106886;28;19959;-79
2021/09/15 01:15:10;;;;;;;;;;;;;;;15.62;100.00;92983.56;2107278;28;20010;-80
2021/09/15 01:16:11;;;;;;;;;;;;;;;15.64;100.00;92990.47;2124060;27;19919;-82
2021/09/15 01:17:13;;;;;;;;;;;;;;;15.60;100.00;92990.63;2123904;27;19911;-81
2021/09/15 01:18:15;;;;;;;;;;;;;;;15.64;100.00;92990.47;2119246;27;19907;-80
2021/09/15 01:19:16;;;;;;;;;;;;;;;15.65;100.00;92992.75;2116049;28;19912;-82
2021/09/15 01:20:17;;;;;;;;;;;;;;;15.66;100.00;92993.50;2115215;28;19908;-82
2021/09/15 01:21:19;;;;;;;;;;;;;;;15.73;100.00;92987.81;2106945;28;19915;-83
2021/09/15 01:22:20;;;;;;;;;;;;;;;15.67;100.00;92994.97;2106945;28;19915;-79
2021/09/15 01:23:21;;;;;;;;;;;;;;;15.69;100.00;92993.34;2115130;28;19907;-78
2021/09/15 01:24:23;;;;;;;;;;;;;;;15.72;100.00;92995.16;2115415;28;19920;-83
2021/09/15 01:25:24;;;;;;;;;;;;;;;15.69;100.00;92993.34;2106925;28;20044;-83
2021/09/15 01:26:32;;;;;;;;;;;;;;;15.69;100.00;92990.66;2115209;28;19907;-81
2021/09/15 01:27:32;;;;;;;;;;;;;;;15.68;100.00;92991.09;2122139;27;20014;-81
2021/09/15 01:28:33;;;;;;;;;;;;;;;15.72;100.00;92997.84;2115447;28;19918;-81
2021/09/15 01:29:35;;;;;;;;;;;;;;;15.61;100.00;92982.09;2123949;27;19911;-83
2021/09/15 01:30:36;;;;;;;;;;;;;;;15.63;100.00;92984.34;2124416;27;19907;-82
2021/09/15 01:31:37;;;;;;;;;;;;;;;15.60;100.00;92971.78;2123930;27;20315;-81
2021/09/15 01:32:41;;;;;;;;;;;;;;;15.70;100.00;92984.06;2115633;28;19911;-81
2021/09/15 01:33:42;;;;;;;;;;;;;;;15.82;100.00;92977.00;2124507;27;20443;-81
2021/09/15 01:34:47;;;;;;;;;;;;;;;15.73;100.00;92983.16;2124718;27;19958;-79
2021/09/15 01:35:48;;;;;;;;;;;;;;;15.69;100.00;92973.75;2123553;27;20367;-82
2021/09/15 01:36:51;;;;;;;;;;;;;;;15.66;100.00;92974.63;2115310;28;19973;-81
2021/09/15 01:37:52;;;;;;;;;;;;;;;15.63;100.00;92976.28;2115269;28;19935;-81
2021/09/15 01:38:52;;;;;;;;;;;;;;;15.57;100.00;92975.34;2124280;27;19912;-81
2021/09/15 01:39:53;;;;;;;;;;;;;;;15.56;100.00;92976.56;2123734;27;19907;-86
2021/09/15 01:40:54;;;;;;;;;;;;;;;15.52;100.00;92982.09;2115100;28;19908;-78
2021/09/15 01:41:59;;;;;;;;;;;;;;;15.47;100.00;92973.88;2106960;28;19911;-81
2021/09/15 01:43:00;;;;;;;;;;;;;;;15.46;100.00;92975.81;2115814;28;19908;-82
2021/09/15 01:44:01;;;;;;;;;;;;;;;15.49;100.00;92977.59;2116846;27;19915;-81
2021/09/15 01:45:04;;;;;;;;;;;;;;;15.49;100.00;92972.22;2115348;28;19915;-80
2021/09/15 01:46:06;;;;;;;;;;;;;;;15.46;100.00;92983.91;2115069;28;20532;-82
2021/09/15 01:47:09;;;;;;;;;;;;;;;15.44;100.00;92983.59;2115236;28;19977;-84
2021/09/15 01:48:09;;;;;;;;;;;;;;;15.48;100.00;92980.75;2123558;27;19916;-81
2021/09/15 01:49:11;;;;;;;;;;;;;;;15.43;100.00;92971.34;2123637;27;20413;-84
2021/09/15 01:50:12;;;;;;;;;;;;;;;15.43;100.00;92975.97;2124186;27;19917;-83
2021/09/15 01:51:13;;;;;;;;;;;;;;;15.48;100.00;92965.34;2124111;27;19911;-79
2021/09/15 01:52:15;;;;;;;;;;;;;;;15.46;100.00;92967.00;2124346;27;19951;-83
2021/09/15 01:53:15;;;;;;;;;;;;;;;15.45;100.00;92962.78;2123623;27;19915;-83
2021/09/15 01:54:16;;;;;;;;;;;;;;;15.47;100.00;92958.47;2106384;28;19969;-84
2021/09/15 01:55:22;;;;;;;;;;;;;;;15.50;100.00;92956.81;2115401;28;19914;-84
2021/09/15 01:56:23;;;;;;;;;;;;;;;15.44;100.00;92951.28;2123545;27;19918;-81
2021/09/15 01:57:25;;;;;;;;;;;;;;;15.44;100.00;92955.91;2123613;27;19998;-80
2021/09/15 01:58:26;;;;;;;;;;;;;;;15.45;100.00;92968.19;2123254;27;19911;-80
2021/09/15 01:59:27;;;;;;;;;;;;;;;15.45;100.00;92960.09;2115005;28;20257;-81
2021/09/15 02:00:28;;;;;;;;;;;;;;;15.45;100.00;92958.19;2123614;27;19907;-81
2021/09/15 02:01:29;;;;;;;;;;;;;;;15.38;100.00;92961.16;2115051;28;19907;-83
2021/09/15 02:02:30;;;;;;;;;;;;;;;15.34;100.00;92969.38;2114922;28;20378;-80
2021/09/15 02:03:34;;;;;;;;;;;;;;;15.41;100.00;92973.75;2114998;27;19908;-81
2021/09/15 02:04:35;;;;;;;;;;;;;;;15.44;100.00;92966.69;2123553;27;20323;-79
2021/09/15 02:05:36;;;;;;;;;;;;;;;15.44;100.00;92964.00;2123381;27;20363;-79
2021/09/15 02:06:38;;;;;;;;;;;;;;;15.45;100.00;92962.78;2115264;28;20288;-84
2021/09/15 02:07:39;;;;;;;;;;;;;;;15.40;100.00;92958.75;2123120;27;20352;-82
2021/09/15 02:08:40;;;;;;;;;;;;;;;15.42;100.00;92953.69;2106344;28;19943;-84
2021/09/15 02:09:41;;;;;;;;;;;;;;;15.43;100.00;92959.81;2109707;28;19935;-81
2021/09/15 02:10:43;;;;;;;;;;;;;;;15.38;100.00;92952.34;2115701;27;19923;-84
2021/09/15 02:11:44;;;;;;;;;;;;;;;15.35;100.00;92964.75;2115009;28;20310;-82
2021/09/15 02:12:46;;;;;;;;;;;;;;;15.31;100.00;92956.06;2115010;28;20276;-83
2021/09/15 02:13:47;;;;;;;;;;;;;;;15.30;100.00;92958.03;2115095;28;19951;-82
2021/09/15 02:14:48;;;;;;;;;;;;;;;15.30;100.00;92958.03;2115058;28;19908;-80
2021/09/15 02:15:49;;;;;;;;;;;;;;;15.32;100.00;92962.94;2106656;28;19915;-82
2021/09/15 02:16:50;;;;;;;;;;;;;;;15.35;100.00;92967.44;2106822;28;20381;-81
2021/09/15 02:17:51;;;;;;;;;;;;;;;15.32;100.00;92961.03;2114901;28;19970;-80
2021/09/15 02:18:52;;;;;;;;;;;;;;;15.31;100.00;92959.50;2106435;28;19911;-82
2021/09/15 02:19:53;;;;;;;;;;;;;;;15.28;100.00;92959.69;2106739;28;20419;-83
2021/09/15 02:20:54;;;;;;;;;;;;;;;15.25;100.00;92950.53;2115567;28;19978;-81
2021/09/15 02:21:55;;;;;;;;;;;;;;;15.32;100.00;92954.88;2115642;28;19988;-79
2021/09/15 02:22:58;;;;;;;;;;;;;;;15.36;100.00;92952.78;2114823;28;20374;-80
2021/09/15 02:23:59;;;;;;;;;;;;;;;15.34;100.00;92953.22;2114845;28;19908;-81
2021/09/15 02:25:00;;;;;;;;;;;;;;;15.35;100.00;92951.28;2115667;28;19908;-80
2021/09/15 02:26:02;;;;;;;;;;;;;;;15.30;100.00;92949.94;2115525;28;19954;-82
2021/09/15 02:27:03;;;;;;;;;;;;;;;15.31;100.00;92954.13;2122180;28;20430;-80
2021/09/15 02:28:04;;;;;;;;;;;;;;;15.29;100.00;92948.44;2115459;28;19926;-80
2021/09/15 02:29:05;;;;;;;;;;;;;;;15.31;100.00;92945.28;2109657;28;20380;-82
2021/09/15 02:30:06;;;;;;;;;;;;;;;15.30;100.00;92951.88;2114072;28;19912;-82
2021/09/15 02:31:07;;;;;;;;;;;;;;;15.30;100.00;92946.50;2099046;28;19950;-79
2021/09/15 02:32:08;;;;;;;;;;;;;;;15.30;100.00;92944.56;2114011;28;20280;-81
2021/09/15 02:33:09;;;;;;;;;;;;;;;15.31;100.00;92951.44;2123207;28;19911;-81
2021/09/15 02:34:10;;;;;;;;;;;;;;;15.30;100.00;92941.84;2114851;28;19952;-80
2021/09/15 02:35:12;;;;;;;;;;;;;;;15.28;100.00;92943.53;2115038;28;20345;-82
2021/09/15 02:36:13;;;;;;;;;;;;;;;15.28;100.00;92949.66;2123239;28;19914;-83
2021/09/15 02:37:15;;;;;;;;;;;;;;;15.31;100.00;92943.34;2124012;28;19908;-81
2021/09/15 02:38:16;;;;;;;;;;;;;;;15.27;100.00;92945.44;2113823;28;19912;-82
2021/09/15 02:39:18;;;;;;;;;;;;;;;15.30;100.00;92933.78;2110363;28;20006;-81
2021/09/15 02:40:19;;;;;;;;;;;;;;;15.25;100.00;92934.38;2115541;28;19908;-79
2021/09/15 02:41:20;;;;;;;;;;;;;;;15.23;100.00;92934.09;2114748;28;19918;-81
2021/09/15 02:42:21;;;;;;;;;;;;;;;15.27;100.00;92931.97;2106444;28;19915;-80
2021/09/15 02:43:22;;;;;;;;;;;;;;;15.23;100.00;92931.41;2114886;28;19911;-82
2021/09/15 02:44:23;;;;;;;;;;;;;;;15.31;100.00;92931.84;2115992;28;20380;-83
2021/09/15 02:45:24;;;;;;;;;;;;;;;15.29;100.00;92926.16;2123431;28;20003;-82
2021/09/15 02:46:25;;;;;;;;;;;;;;;15.31;100.00;92935.28;2123358;28;19914;-81
2021/09/15 02:47:26;;;;;;;;;;;;;;;15.28;100.00;92930.06;2115036;28;20332;-79
2021/09/15 02:48:27;;;;;;;;;;;;;;;15.28;100.00;92932.75;2117202;28;20018;-83
2021/09/15 02:49:28;;;;;;;;;;;;;;;15.23;100.00;92933.31;2106526;28;19908;-81
2021/09/15 02:50:29;;;;;;;;;;;;;;;15.22;100.00;92927.19;2112808;28;19908;-81
2021/09/15 02:51:30;;;;;;;;;;;;;;;15.28;100.00;92930.81;2114967;28;20384;-81
2021/09/15 02:52:31;;;;;;;;;;;;;;;15.23;100.00;92927.94;2115064;28;19939;-81
2021/09/15 02:53:33;;;;;;;;;;;;;;;15.22;100.00;92921.06;2114984;28;20272;-85
2021/09/15 02:54:34;;;;;;;;;;;;;;;15.28;100.00;92928.09;2114833;28;19915;-80
2021/09/15 02:55:35;;;;;;;;;;;;;;;15.23;100.00;92926.03;2121886;28;19922;-82
2021/09/15 02:56:36;;;;;;;;;;;;;;;15.29;100.00;92928.84;2123203;28;20448;-82
2021/09/15 02:57:37;;;;;;;;;;;;;;;15.27;100.00;92931.97;2115516;28;20302;-83
2021/09/15 02:58:38;;;;;;;;;;;;;;;15.19;100.00;92927.34;2118906;28;19954;-80
2021/09/15 02:59:39;;;;;;;;;;;;;;;15.22;100.00;92929.88;2123205;28;19908;-81
2021/09/15 03:00:40;;;;;;;;;;;;;;;15.23;100.00;92919.88;2123342;28;19915;-79
2021/09/15 03:01:41;;;;;;;;;;;;;;;15.26;100.00;92927.06;2123292;28;19911;-81
2021/09/15 03:02:43;;;;;;;;;;;;;;;15.23;100.00;92927.94;2123276;28;19915;-82
2021/09/15 03:03:44;;;;;;;;;;;;;;;15.25;100.00;92922.88;2123281;28;19938;-80
2021/09/15 03:04:45;;;;;;;;;;;;;;;15.26;100.00;92929.75;2123343;28;19960;-80
2021/09/15 03:05:46;;;;;;;;;;;;;;;15.22;100.00;92929.16;2123706;27;19911;-82
2021/09/15 03:06:47;;;;;;;;;;;;;;;15.19;100.00;92932.72;2123700;27;19942;-80
2021/09/15 03:07:48;;;;;;;;;;;;;;;15.19;100.00;92927.34;2121281;28;19947;-81
2021/09/15 03:08:49;;;;;;;;;;;;;;;15.21;100.00;92936.47;2114722;28;19907;-80
2021/09/15 03:09:50;;;;;;;;;;;;;;;15.22;100.00;92935.28;2114806;28;20303;-83
2021/09/15 03:10:51;;;;;;;;;;;;;;;15.22;100.00;92932.59;2130091;27;19911;-83
2021/09/15 03:11:52;;;;;;;;;;;;;;;15.22;100.00;92931.84;2133858;27;19918;-81
2021/09/15 03:12:53;;;;;;;;;;;;;;;15.23;100.00;92933.31;2119307;27;19961;-82
2021/09/15 03:13:54;;;;;;;;;;;;;;;15.28;100.00;92930.06;2107981;28;20430;-81
2021/09/15 03:14:55;;;;;;;;;;;;;;;15.26;100.00;92927.06;2099602;28;19915;-81
2021/09/15 03:15:56;;;;;;;;;;;;;;;15.27;100.00;92937.38;2101418;28;19909;-83
2021/09/15 03:16:57;;;;;;;;;;;;;;;15.26;100.00;92927.06;2124882;27;19907;-81
2021/09/15 03:17:58;;;;;;;;;;;;;;;15.24;100.00;92932.91;2124800;27;20275;-82
2021/09/15 03:18:59;;;;;;;;;;;;;;;15.23;100.00;92927.94;2125081;27;20418;-84
2021/09/15 03:20:00;;;;;;;;;;;;;;;15.20;100.00;92920.78;2133922;27;19930;-84
2021/09/15 03:21:02;;;;;;;;;;;;;;;15.20;100.00;92928.84;2124800;27;19907;-82
2021/09/15 03:22:03;;;;;;;;;;;;;;;15.18;100.00;92931.25;2117951;27;21383;-83
2021/09/15 03:23:04;;;;;;;;;;;;;;;15.21;100.00;92931.09;2124832;27;19911;-82
2021/09/15 03:24:05;;;;;;;;;;;;;;;15.20;100.00;92935.00;2116290;28;19908;-84
2021/09/15 03:25:07;;;;;;;;;;;;;;;15.16;100.00;92939.03;2119606;27;19918;-80
2021/09/15 03:26:08;;;;;;;;;;;;;;;15.16;100.00;92937.09;2132178;27;19916;-80
2021/09/15 03:27:10;;;;;;;;;;;;;;;15.15;100.00;92937.53;2126840;27;19907;-84
2021/09/15 03:28:11;;;;;;;;;;;;;;;15.16;100.00;92939.03;2129828;27;19911;-81
2021/09/15 03:29:13;;;;;;;;;;;;;;;15.18;100.00;92933.94;2125179;27;20381;-84
2021/09/15 03:30:14;;;;;;;;;;;;;;;15.18;100.00;92936.63;2120486;27;19912;-82
2021/09/15 03:31:15;;;;;;;;;;;;;;;15.13;100.00;92937.22;2116480;28;19911;-82
2021/09/15 03:32:16;;;;;;;;;;;;;;;15.10;100.00;92939.63;2116147;28;19958;-82
2021/09/15 03:33:17;;;;;;;;;;;;;;;15.14;100.00;92936.78;2116169;28;20010;-83
2021/09/15 03:34:18;;;;;;;;;;;;;;;15.18;100.00;92928.53;2107760;28;19943;-79
2021/09/15 03:35:19;;;;;;;;;;;;;;;15.16;100.00;92939.03;2107928;28;20296;-83
2021/09/15 03:36:20;;;;;;;;;;;;;;;15.08;100.00;92936.63;2115910;28;19907;-78
2021/09/15 03:37:21;;;;;;;;;;;;;;;15.10;100.00;92930.78;2116306;28;20359;-81
2021/09/15 03:38:21;;;;;;;;;;;;;;;15.08;100.00;92927.81;2127106;27;19945;-78
2021/09/15 03:39:22;;;;;;;;;;;;;;;15.15;100.00;92937.53;2119465;27;20303;-81
2021/09/15 03:40:23;;;;;;;;;;;;;;;15.28;100.00;92932.75;2116081;28;20374;-81
2021/09/15 03:41:25;;;;;;;;;;;;;;;15.24;100.00;92926.78;2116352;27;19912;-84
2021/09/15 03:42:26;;;;;;;;;;;;;;;15.19;100.00;92927.34;2121265;27;19912;-80
2021/09/15 03:43:26;;;;;;;;;;;;;;;15.24;100.00;92932.16;2124646;27;19908;-82
2021/09/15 03:44:28;;;;;;;;;;;;;;;15.30;100.00;92928.41;2133212;27;19906;-84
2021/09/15 03:45:29;;;;;;;;;;;;;;;15.25;100.00;92930.94;2124673;27;19930;-84
2021/09/15 03:46:30;;;;;;;;;;;;;;;15.23;100.00;92923.31;2107668;28;19959;-82
2021/09/15 03:47:31;;;;;;;;;;;;;;;15.28;100.00;92932.75;2124685;27;19907;-81
2021/09/15 03:48:32;;;;;;;;;;;;;;;15.38;100.00;92938.88;2133727;27;19907;-80
2021/09/15 03:49:33;;;;;;;;;;;;;;;15.33;100.00;92934.84;2129401;27;19915;-80
2021/09/15 03:50:34;;;;;;;;;;;;;;;15.32;100.00;92931.41;2110869;28;19922;-81
2021/09/15 03:51:35;;;;;;;;;;;;;;;15.31;100.00;92934.53;2111800;27;19941;-80
2021/09/15 03:52:36;;;;;;;;;;;;;;;15.32;100.00;92933.31;2129053;27;19911;-83
2021/09/15 03:53:37;;;;;;;;;;;;;;;15.39;100.00;92941.09;2120312;27;20006;-81
2021/09/15 03:54:38;;;;;;;;;;;;;;;15.29;100.00;92943.06;2120222;27;19915;-79
2021/09/15 03:55:39;;;;;;;;;;;;;;;15.22;100.00;92935.28;2120316;27;19918;-81
2021/09/15 03:56:40;;;;;;;;;;;;;;;15.18;100.00;92948.13;2103157;28;20593;-78
2021/09/15 03:57:41;;;;;;;;;;;;;;;15.16;100.00;92942.47;2111708;27;20379;-80
2021/09/15 03:58:42;;;;;;;;;;;;;;;15.14;100.00;92938.72;2107526;28;19923;-78
2021/09/15 03:59:43;;;;;;;;;;;;;;;15.16;100.00;92939.03;2111732;28;19907;-80
2021/09/15 04:00:44;;;;;;;;;;;;;;;15.16;100.00;92945.16;2115802;28;20330;-82
2021/09/15 04:01:45;;;;;;;;;;;;;;;15.20;100.00;92947.72;2124570;27;20296;-83
2021/09/15 04:02:46;;;;;;;;;;;;;;;15.17;100.00;92952.03;2133070;27;19911;-80
2021/09/15 04:03:47;;;;;;;;;;;;;;;15.21;100.00;92954.59;2124559;27;19930;-79
2021/09/15 04:04:48;;;;;;;;;;;;;;;15.29;100.00;92953.84;2124400;27;20259;-81
2021/09/15 04:05:51;;;;;;;;;;;;;;;15.22;100.00;92954.13;2123725;27;19952;-82
2021/09/15 04:06:52;;;;;;;;;;;;;;;15.18;100.00;92953.53;2105923;28;19915;-85
2021/09/15 04:07:53;;;;;;;;;;;;;;;15.16;100.00;92949.81;2100138;28;20042;-82
2021/09/15 04:08:54;;;;;;;;;;;;;;;15.15;100.00;92951.75;2114038;28;19989;-79
2021/09/15 04:09:55;;;;;;;;;;;;;;;15.17;100.00;92953.97;2116657;27;19908;-83
2021/09/15 04:10:56;;;;;;;;;;;;;;;15.21;100.00;92955.31;2113610;28;19979;-83
2021/09/15 04:11:57;;;;;;;;;;;;;;;15.11;100.00;92954.59;2108460;28;19915;-79
2021/09/15 04:12:58;;;;;;;;;;;;;;;15.12;100.00;92960.72;2112215;27;19914;-83
2021/09/15 04:13:59;;;;;;;;;;;;;;;15.14;100.00;92960.25;2131156;27;20386;-82
2021/09/15 04:15:00;;;;;;;;;;;;;;;15.21;100.00;92955.31;2117509;27;20368;-79
2021/09/15 04:16:01;;;;;;;;;;;;;;;15.21;100.00;92958.03;2121846;27;19914;-80
2021/09/15 04:17:02;;;;;;;;;;;;;;;15.22;100.00;92950.69;2126912;27;19914;-81
2021/09/15 04:18:03;;;;;;;;;;;;;;;15.22;100.00;92958.75;2121144;27;20387;-80
2021/09/15 04:19:03;;;;;;;;;;;;;;;15.10;100.00;92950.41;2118325;27;19907;-81
2021/09/15 04:20:05;;;;;;;;;;;;;;;15.17;100.00;92956.69;2134807;27;19915;-78
2021/09/15 04:21:07;;;;;;;;;;;;;;;15.14;100.00;92968.34;2131698;27;19911;-78
2021/09/15 04:22:14;;;;;;;;;;;;;;;15.18;100.00;92955.47;2135037;27;19914;-80
2021/09/15 04:23:29;;;;;;;;;;;;;;;15.16;100.00;92958.63;2119677;27;19951;-79
2021/09/15 04:31:22;;;;;;;;;;;;;;;15.05;100.00;92966.38;2119082;27;19911;-78
2021/09/15 04:32:23;;;;;;;;;;;;;;;15.03;100.00;92964.16;2120514;27;19915;-81
2021/09/15 04:33:24;;;;;;;;;;;;;;;15.09;100.00;92962.34;2113753;28;19920;-78
2021/09/15 04:34:25;;;;;;;;;;;;;;;15.11;100.00;92962.66;2121334;27;20002;-79
2021/09/15 04:35:27;;;;;;;;;;;;;;;15.15;100.00;92967.16;2122797;27;19911;-82
2021/09/15 04:36:28;;;;;;;;;;;;;;;15.17;100.00;92970.13;2116824;28;19957;-82
2021/09/15 04:37:29;;;;;;;;;;;;;;;15.22;100.00;92970.28;2125483;27;20512;-82
2021/09/15 04:38:30;;;;;;;;;;;;;;;15.20;100.00;92969.25;2133962;27;19955;-80
2021/09/15 04:39:30;;;;;;;;;;;;;;;15.17;100.00;92972.84;2123343;27;19907;-78
2021/09/15 04:40:31;;;;;;;;;;;;;;;15.12;100.00;92971.47;2121254;27;20246;-80
2021/09/15 04:41:32;;;;;;;;;;;;;;;15.08;100.00;92971.63;2128581;27;20051;-81
2021/09/15 04:42:33;;;;;;;;;;;;;;;15.01;100.00;92961.16;2116094;28;19933;-82
2021/09/15 04:43:34;;;;;;;;;;;;;;;15.04;100.00;92967.59;2106445;28;20694;-81
2021/09/15 04:44:35;;;;;;;;;;;;;;;15.08;100.00;92966.25;2105974;28;19927;-81
2021/09/15 04:45:36;;;;;;;;;;;;;;;15.09;100.00;92958.91;2106196;28;19947;-80
2021/09/15 04:46:37;;;;;;;;;;;;;;;15.06;100.00;92965.94;2123152;27;19966;-80
2021/09/15 04:47:38;;;;;;;;;;;;;;;15.10;100.00;92958.47;2124000;27;19915;-75
2021/09/15 04:48:39;;;;;;;;;;;;;;;15.12;100.00;92963.41;2118143;27;19941;-81
2021/09/15 04:49:40;;;;;;;;;;;;;;;15.10;100.00;92963.88;2122470;27;20387;-80
2021/09/15 04:50:41;;;;;;;;;;;;;;;15.07;100.00;92964.75;2124737;27;19949;-79
2021/09/15 04:51:42;;;;;;;;;;;;;;;15.10;100.00;92960.41;2132307;27;19925;-83
2021/09/15 04:52:43;;;;;;;;;;;;;;;15.02;100.00;92962.66;2115153;27;19954;-82
2021/09/15 04:53:44;;;;;;;;;;;;;;;15.07;100.00;92964.75;2115944;28;19922;-79
2021/09/15 04:54:45;;;;;;;;;;;;;;;15.08;100.00;92966.25;2115035;28;19912;-80
2021/09/15 04:55:46;;;;;;;;;;;;;;;14.94;100.00;92956.06;2114562;27;19950;-82
2021/09/15 04:56:47;;;;;;;;;;;;;;;14.99;100.00;92960.84;2123339;27;19907;-84
2021/09/15 04:57:48;;;;;;;;;;;;;;;15.02;100.00;92957.28;2115141;27;19939;-79
2021/09/15 04:58:49;;;;;;;;;;;;;;;15.04;100.00;92954.88;2119312;27;19915;-80
2021/09/15 04:59:50;;;;;;;;;;;;;;;15.05;100.00;92950.22;2114934;28;19907;-82
2021/09/15 05:00:51;;;;;;;;;;;;;;;15.04;100.00;92951.44;2122422;27;20378;-78
2021/09/15 05:01:52;;;;;;;;;;;;;;;14.99;100.00;92950.09;2121870;27;19907;-81
2021/09/15 05:02:52;;;;;;;;;;;;;;;14.96;100.00;92959.03;2107208;28;19919;-78
2021/09/15 05:03:55;;;;;;;;;;;;;;;15.01;100.00;92953.09;2123893;27;19907;-81
2021/09/15 05:04:56;;;;;;;;;;;;;;;15.04;100.00;92949.47;2132784;27;20395;-79
2021/09/15 05:05:57;;;;;;;;;;;;;;;15.06;100.00;92946.38;2123678;27;20335;-81
2021/09/15 05:06:58;;;;;;;;;;;;;;;15.05;100.00;92947.53;2112808;28;19908;-80
2021/09/15 05:07:59;;;;;;;;;;;;;;;15.11;100.00;92948.44;2111603;28;19946;-85
2021/09/15 05:09:00;;;;;;;;;;;;;;;15.04;100.00;92954.13;2112928;28;19911;-79
2021/09/15 05:10:01;;;;;;;;;;;;;;;15.05;100.00;92945.59;2115611;27;19934;-80
2021/09/15 05:11:02;;;;;;;;;;;;;;;15.07;100.00;92945.91;2123308;27;19918;-82
2021/09/15 05:12:03;;;;;;;;;;;;;;;15.02;100.00;92941.13;2121123;27;19911;-84
2021/09/15 05:13:04;;;;;;;;;;;;;;;14.92;100.00;92936.91;2108864;28;19973;-81
2021/09/15 05:14:05;;;;;;;;;;;;;;;14.91;100.00;92940.06;2111320;28;19920;-82
2021/09/15 05:15:07;;;;;;;;;;;;;;;14.91;100.00;92935.41;2117509;27;19964;-77
2021/09/15 05:16:08;;;;;;;;;;;;;;;14.96;100.00;92937.50;2129001;27;19922;-80
2021/09/15 05:17:08;;;;;;;;;;;;;;;14.98;100.00;92937.09;2116533;27;19911;-81
2021/09/15 05:18:09;;;;;;;;;;;;;;;15.01;100.00;92939.63;2108695;28;19915;-79
2021/09/15 05:19:10;;;;;;;;;;;;;;;15.05;100.00;92937.50;2119117;27;19926;-78
2021/09/15 05:20:12;;;;;;;;;;;;;;;15.06;100.00;92941.72;2114775;28;19914;-81
2021/09/15 05:21:13;;;;;;;;;;;;;;;14.94;100.00;92936.47;2119578;27;19962;-79